createdAt,value
2018-12-30T00:02:15.213Z,99.40
2018-12-30T00:04:43.286Z,99.30
2018-12-30T00:07:11.558Z,99.40
2018-12-30T00:09:41.774Z,99.30
2018-12-30T00:12:09.752Z,99.40
2018-12-30T00:14:39.128Z,99.50
2018-12-30T00:17:07.225Z,99.60
2018-12-30T00:19:42.379Z,99.60
2018-12-30T00:22:04.777Z,99.70
2018-12-30T00:24:32.876Z,99.70
2018-12-30T00:27:00.950Z,99.90
2018-12-30T00:29:28.917Z,99.90
2018-12-30T00:31:56.991Z,99.90
2018-12-30T00:34:24.957Z,99.90
2018-12-30T00:36:52.998Z,99.70
2018-12-30T00:39:20.996Z,99.90
2018-12-30T00:41:48.968Z,99.80
2018-12-30T00:44:16.936Z,99.40
2018-12-30T00:46:45.186Z,99.30
2018-12-30T00:49:13.162Z,99.40
2018-12-30T00:51:41.154Z,99.40
2018-12-30T00:54:09.430Z,99.30
2018-12-30T00:56:37.504Z,99.20
2018-12-30T00:59:05.441Z,99.30
2018-12-30T01:01:33.451Z,99.30
2018-12-30T01:04:01.413Z,98.90
2018-12-30T01:06:29.866Z,98.90
2018-12-30T01:08:57.835Z,99.10
2018-12-30T01:11:25.932Z,99.20
2018-12-30T01:13:53.900Z,99.50
2018-12-30T01:16:22.828Z,99.70
2018-12-30T01:18:50.835Z,99.60
2018-12-30T01:21:24.939Z,99.60
2018-12-30T01:23:48.849Z,99.60
2018-12-30T01:26:16.898Z,99.40
2018-12-30T01:28:44.890Z,99.50
2018-12-30T01:31:12.962Z,99.10
2018-12-30T01:33:40.905Z,99.20
2018-12-30T01:36:09.208Z,99.10
2018-12-30T01:38:37.280Z,98.90
2018-12-30T01:41:05.354Z,98.90
2018-12-30T01:43:33.427Z,98.80
2018-12-30T01:46:01.394Z,98.90
2018-12-30T01:48:29.466Z,98.90
2018-12-30T01:50:58.489Z,98.90
2018-12-30T01:53:27.708Z,98.80
2018-12-30T01:55:55.810Z,98.90
2018-12-30T01:58:23.780Z,98.80
2018-12-30T02:00:51.947Z,98.90
2018-12-30T02:03:20.227Z,99.10
2018-12-30T02:05:48.323Z,99.30
2018-12-30T02:08:16.400Z,99.50
2018-12-30T02:10:44.364Z,99.60
2018-12-30T02:13:12.336Z,99.90
2018-12-30T02:15:40.507Z,99.90
2018-12-30T02:18:08.478Z,99.90
2018-12-30T02:20:37.368Z,99.90
2018-12-30T02:23:06.397Z,99.90
2018-12-30T02:25:34.433Z,99.90
2018-12-30T02:28:02.508Z,99.90
2018-12-30T02:30:30.553Z,99.90
2018-12-30T02:32:58.547Z,99.90
2018-12-30T02:35:26.697Z,99.90
2018-12-30T02:37:54.669Z,99.90
2018-12-30T02:40:22.660Z,99.90
2018-12-30T02:42:51.140Z,99.90
2018-12-30T02:45:19.285Z,99.90
2018-12-30T02:47:47.288Z,99.90
2018-12-30T02:50:15.226Z,99.90
2018-12-30T02:52:43.224Z,99.90
2018-12-30T02:55:11.807Z,99.90
2018-12-30T02:57:39.778Z,99.90
2018-12-30T03:00:07.958Z,99.90
2018-12-30T03:02:35.897Z,99.90
2018-12-30T03:05:03.887Z,99.90
2018-12-30T03:07:33.665Z,99.90
2018-12-30T03:10:01.789Z,99.90
2018-12-30T03:12:29.742Z,99.90
2018-12-30T03:14:57.715Z,99.90
2018-12-30T03:17:26.621Z,99.90
2018-12-30T03:19:56.859Z,99.90
2018-12-30T03:22:24.877Z,99.90
2018-12-30T03:24:52.867Z,99.90
2018-12-30T03:27:20.914Z,99.90
2018-12-30T03:29:48.908Z,99.90
2018-12-30T03:32:16.984Z,99.90
2018-12-30T03:34:45.057Z,99.90
2018-12-30T03:37:13.021Z,99.90
2018-12-30T03:39:40.966Z,99.90
2018-12-30T03:42:09.269Z,99.90
2018-12-30T03:44:37.339Z,99.90
2018-12-30T03:47:05.308Z,99.90
2018-12-30T03:49:34.229Z,99.90
2018-12-30T03:52:08.280Z,99.90
2018-12-30T03:54:32.091Z,99.90
2018-12-30T03:57:00.054Z,99.90
2018-12-30T03:59:29.383Z,99.90
2018-12-30T04:01:57.528Z,99.90
2018-12-30T04:04:27.388Z,99.90
2018-12-30T04:06:55.311Z,99.90
2018-12-30T04:09:23.255Z,99.90
2018-12-30T04:11:51.250Z,99.80
2018-12-30T04:14:19.222Z,99.70
2018-12-30T04:16:47.189Z,99.90
2018-12-30T04:19:15.156Z,99.80
2018-12-30T04:21:43.125Z,99.90
2018-12-30T04:24:11.097Z,99.90
2018-12-30T04:26:40.971Z,99.90
2018-12-30T04:29:08.988Z,99.90
2018-12-30T04:31:38.730Z,99.90
2018-12-30T04:34:06.743Z,99.90
2018-12-30T04:36:34.912Z,99.90
2018-12-30T04:39:03.113Z,99.90
2018-12-30T04:41:31.163Z,99.90
2018-12-30T04:43:59.157Z,99.90
2018-12-30T04:46:27.134Z,99.90
2018-12-30T04:48:55.075Z,99.90
2018-12-30T04:51:23.062Z,99.90
2018-12-30T04:53:51.131Z,99.90
2018-12-30T04:56:20.332Z,99.90
2018-12-30T04:58:48.505Z,99.90
2018-12-30T05:01:16.452Z,99.90
2018-12-30T05:03:44.444Z,99.90
2018-12-30T05:06:12.516Z,99.90
2018-12-30T05:08:40.493Z,99.90
2018-12-30T05:11:08.456Z,99.90
2018-12-30T05:13:36.424Z,99.90
2018-12-30T05:16:06.164Z,99.90
2018-12-30T05:18:34.208Z,99.90
2018-12-30T05:21:03.180Z,99.90
2018-12-30T05:23:31.169Z,99.90
2018-12-30T05:25:59.138Z,99.90
2018-12-30T05:28:27.314Z,99.90
2018-12-30T05:30:55.285Z,99.90
2018-12-30T05:33:23.250Z,99.90
2018-12-30T05:35:51.377Z,99.90
2018-12-30T05:38:19.575Z,99.90
2018-12-30T05:40:48.591Z,99.90
2018-12-30T05:43:16.665Z,99.90
2018-12-30T05:45:44.617Z,99.90
2018-12-30T05:48:12.608Z,99.90
2018-12-30T05:50:42.556Z,99.90
2018-12-30T05:53:10.999Z,99.90
2018-12-30T05:55:38.970Z,99.90
2018-12-30T05:58:07.142Z,99.90
2018-12-30T06:00:35.090Z,99.90
2018-12-30T06:03:03.091Z,99.90
2018-12-30T06:05:31.027Z,99.90
2018-12-30T06:07:59.123Z,99.90
2018-12-30T06:10:27.581Z,99.90
2018-12-30T06:12:55.546Z,99.90
2018-12-30T06:15:23.644Z,99.90
2018-12-30T06:17:51.822Z,99.90
2018-12-30T06:20:19.792Z,99.90
2018-12-30T06:22:49.677Z,99.90
2018-12-30T06:25:17.371Z,99.90
2018-12-30T06:27:45.454Z,99.90
2018-12-30T06:30:13.406Z,99.90
2018-12-30T06:32:41.379Z,99.90
2018-12-30T06:35:09.454Z,99.90
2018-12-30T06:37:38.382Z,99.90
2018-12-30T06:40:11.272Z,99.90
2018-12-30T06:42:36.094Z,99.90
2018-12-30T06:45:04.105Z,99.90
2018-12-30T06:47:33.965Z,99.90
2018-12-30T06:50:02.180Z,99.90
2018-12-30T06:52:30.122Z,99.90
2018-12-30T06:54:58.119Z,99.90
2018-12-30T06:57:26.066Z,99.90
2018-12-30T06:59:55.996Z,99.90
2018-12-30T07:02:23.950Z,99.90
2018-12-30T07:04:51.951Z,99.90
2018-12-30T07:07:19.914Z,99.90
2018-12-30T07:09:48.087Z,99.90
2018-12-30T07:12:16.048Z,99.90
2018-12-30T07:14:44.026Z,99.90
2018-12-30T07:17:12.202Z,99.90
2018-12-30T07:19:40.172Z,99.90
2018-12-30T07:22:08.117Z,99.90
2018-12-30T07:24:36.087Z,99.90
2018-12-30T07:27:05.043Z,99.90
2018-12-30T07:29:33.250Z,99.90
2018-12-30T07:32:01.248Z,99.90
2018-12-30T07:34:30.921Z,99.90
2018-12-30T07:36:58.926Z,99.90
2018-12-30T07:39:26.900Z,99.90
2018-12-30T07:41:54.973Z,99.90
2018-12-30T07:44:22.909Z,99.90
2018-12-30T07:46:51.008Z,99.90
2018-12-30T07:49:19.255Z,99.20
2018-12-30T07:51:47.253Z,97.30
2018-12-30T07:54:16.268Z,95.30
2018-12-30T07:56:44.421Z,95.00
2018-12-30T07:59:12.393Z,93.70
2018-12-30T08:01:40.335Z,92.20
2018-12-30T08:04:08.406Z,91.20
2018-12-30T08:06:36.380Z,90.10
2018-12-30T08:09:04.881Z,83.60
2018-12-30T08:11:33.136Z,82.20
2018-12-30T08:14:01.131Z,80.50
2018-12-30T08:16:29.178Z,77.60
2018-12-30T08:18:57.180Z,75.00
2018-12-30T08:21:25.141Z,70.10
2018-12-30T08:23:53.082Z,69.20
2018-12-30T08:26:21.182Z,68.20
2018-12-30T08:28:49.152Z,66.90
2018-12-30T08:31:17.224Z,65.00
2018-12-30T08:33:45.190Z,62.60
2018-12-30T08:36:13.137Z,62.10
2018-12-30T08:38:41.313Z,60.20
2018-12-30T08:41:09.311Z,59.40
2018-12-30T08:43:37.378Z,58.30
2018-12-30T08:46:05.347Z,57.70
2018-12-30T08:48:34.933Z,56.40
2018-12-30T08:51:03.132Z,54.40
2018-12-30T08:53:31.199Z,53.10
2018-12-30T08:55:59.149Z,52.30
2018-12-30T08:58:27.221Z,50.90
2018-12-30T09:00:55.290Z,49.60
2018-12-30T09:03:24.401Z,47.90
2018-12-30T09:05:53.471Z,47.80
2018-12-30T09:08:21.475Z,47.30
2018-12-30T09:10:49.751Z,44.80
2018-12-30T09:13:17.696Z,46.20
2018-12-30T09:15:45.795Z,43.80
2018-12-30T09:18:13.762Z,43.70
2018-12-30T09:20:41.731Z,43.40
2018-12-30T09:23:09.701Z,42.90
2018-12-30T09:25:37.669Z,42.10
2018-12-30T09:28:05.625Z,41.90
2018-12-30T09:30:33.609Z,42.40
2018-12-30T09:33:01.681Z,41.60
2018-12-30T09:35:29.939Z,41.70
2018-12-30T09:37:58.030Z,41.60
2018-12-30T09:40:25.999Z,41.80
2018-12-30T09:42:53.967Z,39.80
2018-12-30T09:45:21.990Z,39.60
2018-12-30T09:47:49.879Z,39.50
2018-12-30T09:50:17.862Z,39.10
2018-12-30T09:52:45.847Z,38.30
2018-12-30T09:55:13.818Z,36.90
2018-12-30T09:57:41.787Z,36.50
2018-12-30T10:00:09.753Z,34.10
2018-12-30T10:02:37.716Z,34.00
2018-12-30T10:05:06.722Z,33.90
2018-12-30T10:07:34.664Z,33.90
2018-12-30T10:10:02.730Z,34.20
2018-12-30T10:12:32.542Z,35.10
2018-12-30T10:15:09.356Z,35.30
2018-12-30T10:17:31.071Z,34.30
2018-12-30T10:19:59.346Z,35.20
2018-12-30T10:22:27.319Z,35.70
2018-12-30T10:24:55.365Z,37.10
2018-12-30T10:27:25.290Z,37.20
2018-12-30T10:29:53.170Z,37.00
2018-12-30T10:32:21.215Z,36.20
2018-12-30T10:34:49.187Z,36.60
2018-12-30T10:37:17.258Z,36.20
2018-12-30T10:39:45.459Z,37.10
2018-12-30T10:42:13.529Z,37.30
2018-12-30T10:44:41.473Z,37.20
2018-12-30T10:47:09.469Z,37.80
2018-12-30T10:49:37.517Z,37.00
2018-12-30T10:52:05.511Z,37.60
2018-12-30T10:54:35.411Z,38.10
2018-12-30T10:57:04.793Z,37.60
2018-12-30T10:59:32.898Z,38.00
2018-12-30T11:02:01.074Z,37.40
2018-12-30T11:04:29.144Z,37.20
2018-12-30T11:06:58.191Z,36.80
2018-12-30T11:09:26.520Z,37.00
2018-12-30T11:11:54.571Z,37.40
2018-12-30T11:14:22.661Z,37.70
2018-12-30T11:16:50.630Z,38.30
2018-12-30T11:19:18.683Z,39.50
2018-12-30T11:21:50.035Z,41.10
2018-12-30T11:24:19.629Z,42.80
2018-12-30T11:26:47.831Z,45.10
2018-12-30T11:29:16.012Z,48.10
2018-12-30T11:31:43.960Z,50.30
2018-12-30T11:34:12.025Z,53.10
2018-12-30T11:36:40.018Z,55.40
2018-12-30T11:39:08.191Z,58.50
2018-12-30T11:41:36.159Z,60.00
2018-12-30T11:44:04.130Z,62.20
2018-12-30T11:46:32.181Z,65.60
2018-12-30T11:49:00.274Z,66.40
2018-12-30T11:51:28.447Z,67.60
2018-12-30T11:53:56.397Z,67.70
2018-12-30T11:56:24.363Z,69.00
2018-12-30T11:58:52.767Z,69.10
2018-12-30T12:01:20.941Z,70.20
2018-12-30T12:03:48.914Z,69.80
2018-12-30T12:06:17.089Z,70.70
2018-12-30T12:08:46.145Z,70.70
2018-12-30T12:11:14.251Z,71.60
2018-12-30T12:13:44.104Z,71.30
2018-12-30T12:16:11.831Z,71.40
2018-12-30T12:18:41.583Z,73.30
2018-12-30T12:21:09.587Z,73.30
2018-12-30T12:23:37.769Z,73.20
2018-12-30T12:26:05.857Z,73.10
2018-12-30T12:28:37.103Z,72.90
2018-12-30T12:31:05.075Z,72.30
2018-12-30T12:33:33.222Z,69.50
2018-12-30T12:36:01.303Z,69.00
2018-12-30T12:38:29.288Z,66.90
2018-12-30T12:40:57.363Z,62.80
2018-12-30T12:43:25.518Z,58.80
2018-12-30T12:45:53.507Z,55.40
2018-12-30T12:48:21.449Z,52.30
2018-12-30T12:50:49.546Z,49.60
2018-12-30T12:53:19.390Z,46.70
2018-12-30T12:55:47.206Z,43.90
2018-12-30T12:58:15.282Z,43.00
2018-12-30T13:00:43.240Z,40.30
2018-12-30T13:03:11.310Z,38.20
2018-12-30T13:05:39.282Z,36.80
2018-12-30T13:08:07.255Z,36.60
2018-12-30T13:10:35.219Z,36.10
2018-12-30T13:13:03.396Z,34.40
2018-12-30T13:15:31.369Z,31.50
2018-12-30T13:17:59.334Z,29.80
2018-12-30T13:20:27.435Z,29.30
2018-12-30T13:22:55.507Z,32.00
2018-12-30T13:25:23.781Z,34.90
2018-12-30T13:27:51.852Z,39.10
2018-12-30T13:30:19.794Z,42.50
2018-12-30T13:32:47.867Z,45.30
2018-12-30T13:35:15.837Z,49.00
2018-12-30T13:37:43.832Z,53.10
2018-12-30T13:40:11.780Z,55.90
2018-12-30T13:42:39.746Z,56.30
2018-12-30T13:45:07.740Z,58.00
2018-12-30T13:47:35.897Z,59.60
2018-12-30T13:50:03.889Z,61.70
2018-12-30T13:52:31.830Z,64.60
2018-12-30T13:54:59.823Z,67.90
2018-12-30T13:57:27.793Z,70.20
2018-12-30T13:59:55.762Z,73.30
2018-12-30T14:02:23.731Z,73.80
2018-12-30T14:04:51.703Z,75.80
2018-12-30T14:07:19.670Z,78.20
2018-12-30T14:09:47.741Z,80.70
2018-12-30T14:12:15.712Z,81.10
2018-12-30T14:14:43.784Z,82.00
2018-12-30T14:17:11.731Z,84.20
2018-12-30T14:19:40.930Z,84.80
2018-12-30T14:22:08.921Z,85.50
2018-12-30T14:24:37.093Z,86.50
2018-12-30T14:27:05.142Z,86.80
2018-12-30T14:29:33.342Z,87.60
2018-12-30T14:32:01.318Z,88.50
2018-12-30T14:34:29.279Z,89.90
2018-12-30T14:36:57.222Z,89.60
2018-12-30T14:39:25.422Z,89.90
2018-12-30T14:41:53.393Z,90.00
2018-12-30T14:44:21.541Z,90.30
2018-12-30T14:46:49.640Z,90.50
2018-12-30T14:49:17.609Z,90.80
2018-12-30T14:51:45.659Z,90.80
2018-12-30T14:54:13.732Z,91.10
2018-12-30T14:57:14.796Z,91.10
2018-12-30T14:59:42.873Z,91.20
2018-12-30T15:02:10.940Z,92.00
2018-12-30T15:04:40.838Z,91.70
2018-12-30T15:07:08.721Z,92.40
2018-12-30T15:09:36.599Z,92.80
2018-12-30T15:12:04.851Z,92.90
2018-12-30T15:14:33.041Z,93.20
2018-12-30T15:44:04.540Z,97.30
2018-12-30T15:46:32.650Z,97.50
2018-12-30T15:49:00.595Z,97.60
2018-12-30T15:57:28.935Z,98.20
2018-12-30T15:59:56.895Z,98.10
2018-12-30T16:02:26.281Z,98.70
2018-12-30T16:04:56.178Z,98.80
2018-12-30T16:07:24.167Z,98.70
2018-12-30T16:09:52.139Z,98.70
2018-12-30T16:12:20.420Z,99.00
2018-12-30T16:14:48.791Z,99.00
2018-12-30T16:17:16.867Z,99.30
2018-12-30T16:19:44.960Z,99.50
2018-12-30T16:22:13.033Z,99.60
2018-12-30T16:24:42.007Z,99.90
2018-12-30T16:27:09.997Z,99.90
2018-12-30T16:29:38.105Z,99.90
2018-12-30T16:32:06.928Z,99.90
2018-12-30T16:34:35.007Z,99.90
2018-12-30T16:37:03.000Z,99.90
2018-12-30T16:39:31.072Z,99.90
2018-12-30T16:41:59.146Z,99.90
2018-12-30T16:44:27.219Z,99.90
2018-12-30T16:46:57.409Z,99.90
2018-12-30T16:49:27.123Z,99.90
2018-12-30T16:51:55.118Z,99.90
2018-12-30T16:54:23.393Z,99.90
2018-12-30T16:56:51.465Z,99.90
2018-12-30T16:59:19.430Z,99.90
2018-12-30T17:01:47.408Z,99.90
2018-12-30T17:04:15.587Z,99.90
2018-12-30T17:06:43.629Z,99.90
2018-12-30T17:09:11.725Z,99.90
2018-12-30T17:11:41.528Z,99.90
2018-12-30T17:14:10.583Z,99.90
2018-12-30T17:16:40.370Z,99.90
2018-12-30T17:19:08.617Z,99.90
2018-12-30T17:21:36.580Z,99.90
2018-12-30T17:24:04.661Z,99.90
2018-12-30T17:26:32.709Z,99.90
2018-12-30T17:29:00.775Z,99.90
2018-12-30T17:31:28.874Z,99.90
2018-12-30T17:33:57.172Z,99.90
2018-12-30T17:36:25.428Z,99.90
2018-12-30T17:38:55.645Z,99.90
2018-12-30T17:41:23.328Z,99.30
2018-12-30T17:43:51.273Z,99.50
2018-12-30T17:46:19.456Z,99.50
2018-12-30T17:48:49.346Z,99.60
2018-12-30T17:51:17.442Z,99.70
2018-12-30T17:53:45.513Z,99.90
2018-12-30T17:56:13.672Z,99.60
2018-12-30T17:58:41.758Z,99.50
2018-12-30T18:01:09.934Z,99.30
2018-12-30T18:03:39.232Z,99.10
2018-12-30T18:06:09.464Z,98.80
2018-12-30T18:08:37.721Z,98.90
2018-12-30T18:11:07.443Z,98.40
2018-12-30T18:13:35.595Z,98.50
2018-12-30T18:16:03.767Z,98.40
2018-12-30T18:18:32.152Z,98.40
2018-12-30T18:21:01.084Z,98.40
2018-12-30T18:23:29.213Z,98.10
2018-12-30T18:25:58.741Z,97.90
2018-12-30T18:28:27.720Z,97.60
2018-12-30T18:30:55.808Z,97.60
2018-12-30T18:33:23.981Z,96.90
2018-12-30T18:35:52.055Z,96.90
2018-12-30T18:38:22.298Z,96.30
2018-12-30T18:40:50.935Z,95.90
2018-12-30T18:43:19.038Z,95.40
2018-12-30T18:45:47.099Z,95.80
2018-12-30T18:48:15.171Z,96.00
2018-12-30T18:50:45.400Z,95.40
2018-12-30T18:53:15.124Z,94.80
2018-12-30T18:55:44.410Z,94.30
2018-12-30T18:58:12.490Z,94.40
2018-12-30T19:00:40.563Z,94.20
2018-12-30T19:03:08.813Z,94.30
2018-12-30T19:05:37.005Z,94.20
2018-12-30T19:08:05.389Z,94.40
2018-12-30T19:10:33.564Z,94.50
2018-12-30T19:13:04.706Z,94.90
2018-12-30T19:15:32.647Z,94.90
2018-12-30T19:18:00.955Z,94.90
2018-12-30T19:20:28.921Z,94.90
2018-12-30T19:22:57.910Z,95.00
2018-12-30T19:25:26.087Z,95.00
2018-12-30T19:27:54.362Z,94.90
2018-12-30T19:30:22.741Z,94.40
2018-12-30T19:32:51.676Z,94.70
2018-12-30T19:35:19.660Z,95.00
2018-12-30T19:37:47.774Z,94.60
2018-12-30T19:40:15.931Z,94.70
2018-12-30T19:42:44.025Z,94.80
2018-12-30T19:45:12.212Z,94.90
2018-12-30T19:47:40.356Z,94.90
2018-12-30T19:50:08.965Z,94.90
2018-12-30T19:52:37.229Z,94.80
2018-12-30T19:55:05.511Z,94.50
2018-12-30T19:57:33.577Z,94.50
2018-12-30T20:00:01.771Z,94.30
2018-12-30T20:02:29.736Z,94.10
2018-12-30T20:04:59.230Z,94.10
2018-12-30T20:07:28.000Z,94.30
2018-12-30T20:09:56.393Z,94.40
2018-12-30T20:12:24.670Z,94.40
2018-12-30T20:14:52.919Z,94.40
2018-12-30T20:17:21.018Z,94.10
2018-12-30T20:19:48.987Z,94.20
2018-12-30T20:22:16.938Z,94.00
2018-12-30T20:24:44.998Z,93.00
2018-12-30T20:27:13.099Z,92.90
2018-12-30T20:29:41.171Z,92.80
2018-12-30T20:32:09.254Z,92.00
2018-12-30T20:34:37.339Z,90.50
2018-12-30T20:37:05.389Z,90.20
2018-12-30T20:39:37.646Z,90.40
2018-12-30T20:42:05.660Z,90.60
2018-12-30T20:44:33.704Z,90.50
2018-12-30T20:47:02.180Z,90.60
2018-12-30T20:49:30.149Z,90.40
2018-12-30T20:51:58.129Z,90.30
2018-12-30T20:54:26.421Z,90.30
2018-12-30T20:56:54.364Z,90.70
2018-12-30T20:59:22.254Z,90.20
2018-12-30T21:01:50.515Z,90.10
2018-12-30T21:04:18.480Z,88.80
2018-12-30T21:06:46.641Z,88.80
2018-12-30T21:09:15.921Z,88.90
2018-12-30T21:11:44.718Z,88.20
2018-12-30T21:14:13.641Z,87.80
2018-12-30T21:16:42.728Z,88.10
2018-12-30T21:19:11.207Z,88.80
2018-12-30T21:21:39.263Z,88.70
2018-12-30T21:24:08.171Z,89.00
2018-12-30T21:26:36.116Z,89.30
2018-12-30T21:29:04.365Z,88.30
2018-12-30T21:31:32.603Z,88.70
2018-12-30T21:34:02.665Z,89.60
2018-12-30T21:36:30.679Z,90.20
2018-12-30T21:38:58.752Z,90.60
2018-12-30T21:41:26.834Z,90.60
2018-12-30T21:43:57.163Z,90.80
2018-12-30T21:46:25.732Z,90.80
2018-12-30T21:48:54.198Z,91.10
2018-12-30T21:51:22.286Z,91.20
2018-12-30T21:53:50.331Z,91.90
2018-12-30T21:56:18.326Z,92.10
2018-12-30T21:58:46.705Z,92.40
2018-12-30T22:01:14.860Z,92.30
2018-12-30T22:03:42.762Z,92.00
2018-12-30T22:06:10.973Z,90.40
2018-12-30T22:08:38.932Z,90.20
2018-12-30T22:11:06.772Z,89.80
2018-12-30T22:13:34.765Z,89.70
2018-12-30T22:16:02.622Z,89.80
2018-12-30T22:18:30.491Z,90.20
2018-12-30T22:20:59.172Z,90.30
2018-12-30T22:23:27.051Z,90.50
2018-12-30T22:25:55.497Z,90.50
2018-12-30T22:28:23.777Z,90.50
2018-12-30T22:30:51.846Z,90.50
2018-12-30T22:33:19.793Z,90.40
2018-12-30T22:35:48.540Z,90.30
2018-12-30T22:38:16.745Z,90.50
2018-12-30T22:40:44.827Z,91.10
2018-12-30T22:43:14.601Z,91.30
2018-12-30T22:45:42.336Z,91.80
2018-12-30T22:48:10.297Z,91.60
2018-12-30T22:50:38.366Z,91.80
2018-12-30T22:53:06.312Z,92.00
2018-12-30T22:55:34.485Z,91.90
2018-12-30T22:58:02.582Z,91.80
2018-12-30T23:00:48.266Z,91.70
2018-12-30T23:03:16.771Z,91.70
2018-12-30T23:05:45.058Z,91.80
2018-12-30T23:08:13.485Z,91.90
2018-12-30T23:10:42.066Z,91.70
2018-12-30T23:13:10.365Z,92.10
2018-12-30T23:15:38.741Z,91.00
2018-12-30T23:18:06.786Z,90.00
2018-12-30T23:20:34.762Z,90.10
2018-12-30T23:23:02.751Z,90.10
2018-12-30T23:25:31.028Z,89.10
2018-12-30T23:27:59.984Z,88.30
2018-12-30T23:30:27.992Z,88.40
2018-12-30T23:32:57.192Z,87.30
2018-12-30T23:35:25.161Z,87.00
2018-12-30T23:37:53.104Z,87.10
2018-12-30T23:40:21.201Z,87.40
2018-12-30T23:42:49.273Z,87.20
2018-12-30T23:45:17.328Z,86.60
2018-12-30T23:47:45.313Z,85.90
2018-12-30T23:50:13.385Z,84.60
2018-12-30T23:52:41.357Z,83.90
2018-12-30T23:55:09.427Z,83.40
2018-12-30T23:57:37.396Z,83.50
